sensor_id;sensor_type;location;lat;lon;timestamp;P1;durP1;ratioP1;P2;durP2;ratioP2
3601;SDS011;1815;50.950;6.920;2023-03-31T00:00:10;6.30;;;1.30;;
3601;SDS011;1815;50.950;6.920;2023-03-31T00:02:37;2.83;;;1.20;;
3601;SDS011;1815;50.950;6.920;2023-03-31T00:05:06;3.97;;;0.80;;
3601;SDS011;1815;50.950;6.920;2023-03-31T00:07:32;3.95;;;0.90;;
3601;SDS011;1815;50.950;6.920;2023-03-31T00:10:04;2.17;;;0.70;;
3601;SDS011;1815;50.950;6.920;2023-03-31T00:12:32;2.08;;;0.65;;
3601;SDS011;1815;50.950;6.920;2023-03-31T00:14:57;1.58;;;0.60;;
3601;SDS011;1815;50.950;6.920;2023-03-31T00:17:23;2.23;;;0.70;;
3601;SDS011;1815;50.950;6.920;2023-03-31T00:19:49;3.13;;;1.03;;
3601;SDS011;1815;50.950;6.920;2023-03-31T00:22:15;3.10;;;0.70;;
3601;SDS011;1815;50.950;6.920;2023-03-31T00:24:46;5.73;;;0.80;;
3601;SDS011;1815;50.950;6.920;2023-03-31T00:27:12;3.10;;;0.90;;
3601;SDS011;1815;50.950;6.920;2023-03-31T00:29:38;2.83;;;0.70;;
3601;SDS011;1815;50.950;6.920;2023-03-31T00:32:06;2.33;;;0.67;;
3601;SDS011;1815;50.950;6.920;2023-03-31T00:34:32;2.58;;;0.77;;
3601;SDS011;1815;50.950;6.920;2023-03-31T00:37:01;2.03;;;0.70;;
3601;SDS011;1815;50.950;6.920;2023-03-31T00:39:27;2.90;;;0.80;;
3601;SDS011;1815;50.950;6.920;2023-03-31T00:41:57;3.13;;;0.80;;
3601;SDS011;1815;50.950;6.920;2023-03-31T00:44:24;3.63;;;0.77;;
3601;SDS011;1815;50.950;6.920;2023-03-31T00:47:01;2.72;;;1.02;;
3601;SDS011;1815;50.950;6.920;2023-03-31T00:49:36;2.55;;;0.70;;
3601;SDS011;1815;50.950;6.920;2023-03-31T00:52:08;2.85;;;0.80;;
3601;SDS011;1815;50.950;6.920;2023-03-31T00:54:44;3.92;;;0.80;;
3601;SDS011;1815;50.950;6.920;2023-03-31T00:57:13;1.70;;;0.70;;
3601;SDS011;1815;50.950;6.920;2023-03-31T00:59:45;3.38;;;0.80;;
3601;SDS011;1815;50.950;6.920;2023-03-31T01:02:16;3.25;;;1.17;;
3601;SDS011;1815;50.950;6.920;2023-03-31T01:05:03;3.08;;;0.60;;
3601;SDS011;1815;50.950;6.920;2023-03-31T01:10:03;3.50;;;0.70;;
3601;SDS011;1815;50.950;6.920;2023-03-31T01:12:29;4.18;;;0.70;;
3601;SDS011;1815;50.950;6.920;2023-03-31T01:14:58;4.75;;;0.70;;
3601;SDS011;1815;50.950;6.920;2023-03-31T01:17:26;2.42;;;0.80;;
3601;SDS011;1815;50.950;6.920;2023-03-31T01:28:54;3.13;;;0.80;;
3601;SDS011;1815;50.950;6.920;2023-03-31T01:37:34;2.83;;;0.70;;
3601;SDS011;1815;50.950;6.920;2023-03-31T01:40:23;4.50;;;0.93;;
3601;SDS011;1815;50.950;6.920;2023-03-31T02:01:58;3.65;;;0.75;;
3601;SDS011;1815;50.950;6.920;2023-03-31T02:04:42;4.57;;;0.90;;
3601;SDS011;1815;50.950;6.920;2023-03-31T02:07:15;4.70;;;0.90;;
3601;SDS011;1815;50.950;6.920;2023-03-31T02:09:50;5.20;;;0.80;;
3601;SDS011;1815;50.950;6.920;2023-03-31T02:12:22;5.90;;;1.58;;
3601;SDS011;1815;50.950;6.920;2023-03-31T02:14:51;3.13;;;0.80;;
3601;SDS011;1815;50.950;6.920;2023-03-31T02:17:20;5.70;;;1.10;;
3601;SDS011;1815;50.950;6.920;2023-03-31T02:19:54;6.93;;;0.90;;
3601;SDS011;1815;50.950;6.920;2023-03-31T02:22:23;4.75;;;1.10;;
3601;SDS011;1815;50.950;6.920;2023-03-31T02:24:50;3.45;;;1.05;;
3601;SDS011;1815;50.950;6.920;2023-03-31T02:27:30;6.25;;;1.23;;
3601;SDS011;1815;50.950;6.920;2023-03-31T02:30:04;7.65;;;1.25;;
3601;SDS011;1815;50.950;6.920;2023-03-31T02:35:02;4.93;;;1.30;;
3601;SDS011;1815;50.950;6.920;2023-03-31T02:37:31;8.00;;;1.15;;
3601;SDS011;1815;50.950;6.920;2023-03-31T02:39:58;9.05;;;1.63;;
3601;SDS011;1815;50.950;6.920;2023-03-31T02:42:27;5.72;;;1.27;;
3601;SDS011;1815;50.950;6.920;2023-03-31T02:44:52;5.40;;;1.00;;
3601;SDS011;1815;50.950;6.920;2023-03-31T02:47:19;8.17;;;2.33;;
3601;SDS011;1815;50.950;6.920;2023-03-31T02:49:50;5.20;;;1.00;;
3601;SDS011;1815;50.950;6.920;2023-03-31T02:55:01;6.15;;;1.88;;
3601;SDS011;1815;50.950;6.920;2023-03-31T02:57:47;6.15;;;1.35;;
3601;SDS011;1815;50.950;6.920;2023-03-31T03:09:19;6.65;;;1.25;;
3601;SDS011;1815;50.950;6.920;2023-03-31T03:11:59;4.40;;;1.67;;
3601;SDS011;1815;50.950;6.920;2023-03-31T03:15:12;4.07;;;1.25;;
3601;SDS011;1815;50.950;6.920;2023-03-31T03:17:41;3.80;;;1.05;;
3601;SDS011;1815;50.950;6.920;2023-03-31T03:20:10;3.80;;;1.10;;
3601;SDS011;1815;50.950;6.920;2023-03-31T03:22:37;4.05;;;1.30;;
3601;SDS011;1815;50.950;6.920;2023-03-31T03:25:08;5.78;;;1.15;;
3601;SDS011;1815;50.950;6.920;2023-03-31T03:27:36;3.78;;;1.02;;
3601;SDS011;1815;50.950;6.920;2023-03-31T03:30:03;2.85;;;1.00;;
3601;SDS011;1815;50.950;6.920;2023-03-31T03:32:30;2.60;;;0.90;;
3601;SDS011;1815;50.950;6.920;2023-03-31T03:37:58;8.63;;;1.60;;
3601;SDS011;1815;50.950;6.920;2023-03-31T03:40:24;5.30;;;0.97;;
3601;SDS011;1815;50.950;6.920;2023-03-31T03:42:50;5.43;;;0.90;;
3601;SDS011;1815;50.950;6.920;2023-03-31T03:45:15;5.53;;;0.80;;
3601;SDS011;1815;50.950;6.920;2023-03-31T03:47:41;3.43;;;1.30;;
3601;SDS011;1815;50.950;6.920;2023-03-31T03:50:07;4.57;;;1.07;;
3601;SDS011;1815;50.950;6.920;2023-03-31T03:52:33;2.80;;;0.80;;
3601;SDS011;1815;50.950;6.920;2023-03-31T03:54:59;4.40;;;0.90;;
3601;SDS011;1815;50.950;6.920;2023-03-31T03:57:26;3.33;;;0.82;;
3601;SDS011;1815;50.950;6.920;2023-03-31T03:59:52;4.73;;;1.07;;
3601;SDS011;1815;50.950;6.920;2023-03-31T04:02:18;2.63;;;0.90;;
3601;SDS011;1815;50.950;6.920;2023-03-31T04:04:43;5.27;;;1.13;;
3601;SDS011;1815;50.950;6.920;2023-03-31T04:07:10;2.85;;;0.70;;
3601;SDS011;1815;50.950;6.920;2023-03-31T04:09:35;3.20;;;0.80;;
3601;SDS011;1815;50.950;6.920;2023-03-31T04:12:01;4.03;;;0.80;;
3601;SDS011;1815;50.950;6.920;2023-03-31T04:14:27;2.97;;;0.80;;
3601;SDS011;1815;50.950;6.920;2023-03-31T04:16:53;2.83;;;0.87;;
3601;SDS011;1815;50.950;6.920;2023-03-31T04:19:20;3.25;;;0.70;;
3601;SDS011;1815;50.950;6.920;2023-03-31T04:21:50;5.10;;;1.15;;
3601;SDS011;1815;50.950;6.920;2023-03-31T04:24:23;5.18;;;0.90;;
3601;SDS011;1815;50.950;6.920;2023-03-31T04:26:55;4.20;;;0.90;;
3601;SDS011;1815;50.950;6.920;2023-03-31T04:29:21;4.80;;;1.17;;
3601;SDS011;1815;50.950;6.920;2023-03-31T04:31:51;6.35;;;1.20;;
3601;SDS011;1815;50.950;6.920;2023-03-31T04:34:18;3.17;;;1.20;;
3601;SDS011;1815;50.950;6.920;2023-03-31T04:36:46;2.42;;;0.70;;
3601;SDS011;1815;50.950;6.920;2023-03-31T04:39:13;4.53;;;1.10;;
3601;SDS011;1815;50.950;6.920;2023-03-31T04:41:39;3.75;;;0.80;;
3601;SDS011;1815;50.950;6.920;2023-03-31T04:44:05;2.50;;;1.00;;
3601;SDS011;1815;50.950;6.920;2023-03-31T04:46:31;3.50;;;1.30;;
3601;SDS011;1815;50.950;6.920;2023-03-31T04:48:57;5.13;;;0.95;;
3601;SDS011;1815;50.950;6.920;2023-03-31T04:51:25;4.38;;;0.90;;
3601;SDS011;1815;50.950;6.920;2023-03-31T04:53:51;6.55;;;1.65;;
3601;SDS011;1815;50.950;6.920;2023-03-31T04:56:16;3.20;;;0.97;;
3601;SDS011;1815;50.950;6.920;2023-03-31T04:58:42;3.13;;;0.80;;
3601;SDS011;1815;50.950;6.920;2023-03-31T05:01:08;3.35;;;0.73;;
3601;SDS011;1815;50.950;6.920;2023-03-31T05:03:37;8.15;;;1.00;;
3601;SDS011;1815;50.950;6.920;2023-03-31T05:06:03;2.88;;;0.75;;
3601;SDS011;1815;50.950;6.920;2023-03-31T05:08:30;2.35;;;0.90;;
3601;SDS011;1815;50.950;6.920;2023-03-31T05:10:55;3.20;;;0.90;;
3601;SDS011;1815;50.950;6.920;2023-03-31T05:13:22;3.28;;;0.80;;
3601;SDS011;1815;50.950;6.920;2023-03-31T05:15:47;4.53;;;0.80;;
3601;SDS011;1815;50.950;6.920;2023-03-31T05:18:16;2.42;;;0.90;;
3601;SDS011;1815;50.950;6.920;2023-03-31T05:20:42;2.25;;;0.80;;
3601;SDS011;1815;50.950;6.920;2023-03-31T05:23:08;4.13;;;0.70;;
3601;SDS011;1815;50.950;6.920;2023-03-31T05:25:33;6.30;;;1.03;;
3601;SDS011;1815;50.950;6.920;2023-03-31T05:27:59;2.08;;;0.80;;
3601;SDS011;1815;50.950;6.920;2023-03-31T05:30:26;4.90;;;1.30;;
3601;SDS011;1815;50.950;6.920;2023-03-31T05:32:53;2.53;;;1.00;;
3601;SDS011;1815;50.950;6.920;2023-03-31T05:35:20;2.80;;;0.70;;
3601;SDS011;1815;50.950;6.920;2023-03-31T05:37:45;2.07;;;0.80;;
3601;SDS011;1815;50.950;6.920;2023-03-31T05:40:11;2.60;;;0.73;;
3601;SDS011;1815;50.950;6.920;2023-03-31T05:42:37;2.17;;;0.93;;
3601;SDS011;1815;50.950;6.920;2023-03-31T05:45:03;2.37;;;0.80;;
3601;SDS011;1815;50.950;6.920;2023-03-31T05:47:29;2.38;;;0.70;;
3601;SDS011;1815;50.950;6.920;2023-03-31T05:49:56;5.65;;;0.80;;
3601;SDS011;1815;50.950;6.920;2023-03-31T05:52:22;2.30;;;0.70;;
3601;SDS011;1815;50.950;6.920;2023-03-31T05:54:48;2.07;;;0.67;;
3601;SDS011;1815;50.950;6.920;2023-03-31T05:57:14;2.10;;;0.60;;
3601;SDS011;1815;50.950;6.920;2023-03-31T05:59:40;1.77;;;0.60;;
3601;SDS011;1815;50.950;6.920;2023-03-31T06:02:06;2.15;;;0.75;;
3601;SDS011;1815;50.950;6.920;2023-03-31T06:04:35;1.50;;;0.68;;
3601;SDS011;1815;50.950;6.920;2023-03-31T06:07:01;1.97;;;0.70;;
3601;SDS011;1815;50.950;6.920;2023-03-31T06:09:29;3.50;;;0.70;;
3601;SDS011;1815;50.950;6.920;2023-03-31T06:11:55;2.93;;;0.60;;
3601;SDS011;1815;50.950;6.920;2023-03-31T06:14:21;1.57;;;0.70;;
3601;SDS011;1815;50.950;6.920;2023-03-31T06:16:47;1.70;;;0.50;;
3601;SDS011;1815;50.950;6.920;2023-03-31T06:19:13;1.80;;;0.55;;
3601;SDS011;1815;50.950;6.920;2023-03-31T06:21:39;2.25;;;0.50;;
3601;SDS011;1815;50.950;6.920;2023-03-31T06:24:05;1.77;;;0.50;;
3601;SDS011;1815;50.950;6.920;2023-03-31T06:26:35;1.30;;;0.55;;
3601;SDS011;1815;50.950;6.920;2023-03-31T06:29:07;1.30;;;0.52;;
3601;SDS011;1815;50.950;6.920;2023-03-31T06:31:32;2.47;;;0.60;;
3601;SDS011;1815;50.950;6.920;2023-03-31T06:33:58;1.47;;;0.60;;
3601;SDS011;1815;50.950;6.920;2023-03-31T06:36:24;2.17;;;0.87;;
3601;SDS011;1815;50.950;6.920;2023-03-31T06:39:00;2.03;;;0.50;;
3601;SDS011;1815;50.950;6.920;2023-03-31T06:42:01;1.10;;;0.40;;
3601;SDS011;1815;50.950;6.920;2023-03-31T06:44:53;1.40;;;0.50;;
3601;SDS011;1815;50.950;6.920;2023-03-31T06:47:57;2.38;;;0.60;;
3601;SDS011;1815;50.950;6.920;2023-03-31T06:50:54;1.20;;;0.50;;
3601;SDS011;1815;50.950;6.920;2023-03-31T06:53:38;1.50;;;0.50;;
3601;SDS011;1815;50.950;6.920;2023-03-31T06:56:41;1.50;;;0.60;;
3601;SDS011;1815;50.950;6.920;2023-03-31T06:59:13;2.28;;;0.82;;
3601;SDS011;1815;50.950;6.920;2023-03-31T07:01:49;1.35;;;0.52;;
3601;SDS011;1815;50.950;6.920;2023-03-31T07:04:27;1.35;;;0.50;;
3601;SDS011;1815;50.950;6.920;2023-03-31T07:07:05;3.50;;;0.50;;
3601;SDS011;1815;50.950;6.920;2023-03-31T07:09:51;1.23;;;0.70;;
3601;SDS011;1815;50.950;6.920;2023-03-31T07:12:51;1.50;;;0.52;;
3601;SDS011;1815;50.950;6.920;2023-03-31T07:15:28;1.90;;;0.70;;
3601;SDS011;1815;50.950;6.920;2023-03-31T07:18:02;1.60;;;0.53;;
3601;SDS011;1815;50.950;6.920;2023-03-31T07:20:33;1.57;;;0.50;;
3601;SDS011;1815;50.950;6.920;2023-03-31T07:23:25;2.20;;;0.70;;
3601;SDS011;1815;50.950;6.920;2023-03-31T07:26:19;1.43;;;0.50;;
3601;SDS011;1815;50.950;6.920;2023-03-31T07:28:45;2.00;;;0.50;;
3601;SDS011;1815;50.950;6.920;2023-03-31T07:31:12;2.60;;;0.53;;
3601;SDS011;1815;50.950;6.920;2023-03-31T07:33:38;1.27;;;0.50;;
3601;SDS011;1815;50.950;6.920;2023-03-31T07:36:05;1.33;;;0.53;;
3601;SDS011;1815;50.950;6.920;2023-03-31T07:38:31;2.10;;;0.60;;
3601;SDS011;1815;50.950;6.920;2023-03-31T07:40:57;2.03;;;0.50;;
3601;SDS011;1815;50.950;6.920;2023-03-31T07:43:23;1.10;;;0.40;;
3601;SDS011;1815;50.950;6.920;2023-03-31T07:45:49;1.50;;;0.50;;
3601;SDS011;1815;50.950;6.920;2023-03-31T07:48:15;1.13;;;0.40;;
3601;SDS011;1815;50.950;6.920;2023-03-31T07:50:41;1.60;;;0.50;;
3601;SDS011;1815;50.950;6.920;2023-03-31T07:53:15;1.40;;;0.50;;
3601;SDS011;1815;50.950;6.920;2023-03-31T07:55:41;1.57;;;0.43;;
3601;SDS011;1815;50.950;6.920;2023-03-31T07:58:07;1.50;;;0.50;;
3601;SDS011;1815;50.950;6.920;2023-03-31T08:00:33;2.77;;;0.70;;
3601;SDS011;1815;50.950;6.920;2023-03-31T08:02:58;1.77;;;0.50;;
3601;SDS011;1815;50.950;6.920;2023-03-31T08:05:24;1.60;;;0.60;;
3601;SDS011;1815;50.950;6.920;2023-03-31T08:07:51;1.40;;;0.50;;
3601;SDS011;1815;50.950;6.920;2023-03-31T08:10:24;2.20;;;0.60;;
3601;SDS011;1815;50.950;6.920;2023-03-31T08:12:51;1.90;;;0.53;;
3601;SDS011;1815;50.950;6.920;2023-03-31T08:15:17;1.67;;;0.60;;
3601;SDS011;1815;50.950;6.920;2023-03-31T08:17:43;1.60;;;0.70;;
3601;SDS011;1815;50.950;6.920;2023-03-31T08:20:09;1.80;;;0.57;;
3601;SDS011;1815;50.950;6.920;2023-03-31T08:22:35;2.73;;;0.70;;
3601;SDS011;1815;50.950;6.920;2023-03-31T08:25:02;2.67;;;0.77;;
3601;SDS011;1815;50.950;6.920;2023-03-31T08:27:32;2.70;;;0.70;;
3601;SDS011;1815;50.950;6.920;2023-03-31T08:30:02;3.20;;;0.63;;
3601;SDS011;1815;50.950;6.920;2023-03-31T08:32:34;2.20;;;0.70;;
3601;SDS011;1815;50.950;6.920;2023-03-31T08:35:00;2.10;;;0.80;;
3601;SDS011;1815;50.950;6.920;2023-03-31T08:37:25;3.30;;;0.90;;
3601;SDS011;1815;50.950;6.920;2023-03-31T08:40:01;4.83;;;0.73;;
3601;SDS011;1815;50.950;6.920;2023-03-31T08:42:34;3.70;;;0.77;;
3601;SDS011;1815;50.950;6.920;2023-03-31T08:45:06;2.23;;;0.77;;
3601;SDS011;1815;50.950;6.920;2023-03-31T08:48:05;2.40;;;0.77;;
3601;SDS011;1815;50.950;6.920;2023-03-31T08:50:48;2.57;;;0.80;;
3601;SDS011;1815;50.950;6.920;2023-03-31T08:53:24;3.90;;;0.80;;
3601;SDS011;1815;50.950;6.920;2023-03-31T08:55:55;2.93;;;0.70;;
3601;SDS011;1815;50.950;6.920;2023-03-31T08:58:36;2.03;;;0.50;;
3601;SDS011;1815;50.950;6.920;2023-03-31T09:12:19;2.73;;;0.80;;
3601;SDS011;1815;50.950;6.920;2023-03-31T09:15:13;4.07;;;1.00;;
3601;SDS011;1815;50.950;6.920;2023-03-31T09:17:43;2.80;;;1.30;;
3601;SDS011;1815;50.950;6.920;2023-03-31T09:25:58;3.17;;;0.80;;
3601;SDS011;1815;50.950;6.920;2023-03-31T09:28:30;4.67;;;1.00;;
3601;SDS011;1815;50.950;6.920;2023-03-31T09:31:12;2.77;;;0.90;;
3601;SDS011;1815;50.950;6.920;2023-03-31T09:33:41;2.10;;;0.80;;
3601;SDS011;1815;50.950;6.920;2023-03-31T09:36:17;4.03;;;0.90;;
3601;SDS011;1815;50.950;6.920;2023-03-31T09:38:44;5.20;;;1.10;;
3601;SDS011;1815;50.950;6.920;2023-03-31T09:41:11;5.93;;;0.97;;
3601;SDS011;1815;50.950;6.920;2023-03-31T09:43:40;4.47;;;1.00;;
3601;SDS011;1815;50.950;6.920;2023-03-31T09:49:02;3.73;;;0.90;;
3601;SDS011;1815;50.950;6.920;2023-03-31T09:51:34;3.30;;;0.80;;
3601;SDS011;1815;50.950;6.920;2023-03-31T09:59:11;3.00;;;0.80;;
3601;SDS011;1815;50.950;6.920;2023-03-31T10:01:46;2.60;;;0.77;;
3601;SDS011;1815;50.950;6.920;2023-03-31T10:04:19;3.60;;;0.80;;
3601;SDS011;1815;50.950;6.920;2023-03-31T10:06:47;4.20;;;0.97;;
3601;SDS011;1815;50.950;6.920;2023-03-31T10:09:16;4.63;;;0.80;;
3601;SDS011;1815;50.950;6.920;2023-03-31T10:11:53;4.97;;;1.20;;
3601;SDS011;1815;50.950;6.920;2023-03-31T10:14:39;4.30;;;1.10;;
3601;SDS011;1815;50.950;6.920;2023-03-31T10:17:12;4.05;;;1.10;;
3601;SDS011;1815;50.950;6.920;2023-03-31T10:19:46;3.03;;;1.07;;
3601;SDS011;1815;50.950;6.920;2023-03-31T10:22:15;3.20;;;0.90;;
3601;SDS011;1815;50.950;6.920;2023-03-31T10:24:48;5.47;;;1.30;;
3601;SDS011;1815;50.950;6.920;2023-03-31T10:27:25;3.93;;;0.90;;
3601;SDS011;1815;50.950;6.920;2023-03-31T10:29:54;4.20;;;1.10;;
3601;SDS011;1815;50.950;6.920;2023-03-31T10:34:55;7.37;;;1.23;;
3601;SDS011;1815;50.950;6.920;2023-03-31T10:37:25;2.60;;;0.90;;
3601;SDS011;1815;50.950;6.920;2023-03-31T10:39:57;5.40;;;0.90;;
3601;SDS011;1815;50.950;6.920;2023-03-31T10:42:31;3.60;;;0.80;;
3601;SDS011;1815;50.950;6.920;2023-03-31T10:45:23;3.90;;;1.10;;
3601;SDS011;1815;50.950;6.920;2023-03-31T10:48:00;4.35;;;1.10;;
3601;SDS011;1815;50.950;6.920;2023-03-31T10:50:27;6.90;;;1.30;;
3601;SDS011;1815;50.950;6.920;2023-03-31T10:53:05;4.07;;;1.03;;
3601;SDS011;1815;50.950;6.920;2023-03-31T11:11:27;3.65;;;0.90;;
3601;SDS011;1815;50.950;6.920;2023-03-31T11:22:15;9.60;;;4.07;;
3601;SDS011;1815;50.950;6.920;2023-03-31T11:24:50;7.27;;;3.97;;
3601;SDS011;1815;50.950;6.920;2023-03-31T11:41:04;7.30;;;1.40;;
3601;SDS011;1815;50.950;6.920;2023-03-31T11:43:35;3.60;;;1.30;;
3601;SDS011;1815;50.950;6.920;2023-03-31T11:46:26;2.90;;;0.90;;
3601;SDS011;1815;50.950;6.920;2023-03-31T11:49:07;4.03;;;1.27;;
3601;SDS011;1815;50.950;6.920;2023-03-31T11:51:57;3.63;;;0.80;;
3601;SDS011;1815;50.950;6.920;2023-03-31T11:56:55;3.57;;;1.00;;
3601;SDS011;1815;50.950;6.920;2023-03-31T11:59:21;4.40;;;1.20;;
3601;SDS011;1815;50.950;6.920;2023-03-31T12:01:56;3.20;;;0.90;;
3601;SDS011;1815;50.950;6.920;2023-03-31T12:04:41;4.03;;;1.02;;
3601;SDS011;1815;50.950;6.920;2023-03-31T12:07:18;3.07;;;1.30;;
3601;SDS011;1815;50.950;6.920;2023-03-31T12:10:38;5.40;;;1.33;;
3601;SDS011;1815;50.950;6.920;2023-03-31T12:16:08;4.60;;;1.23;;
3601;SDS011;1815;50.950;6.920;2023-03-31T12:18:43;9.00;;;1.50;;
3601;SDS011;1815;50.950;6.920;2023-03-31T12:21:33;4.20;;;0.90;;
3601;SDS011;1815;50.950;6.920;2023-03-31T12:24:01;3.33;;;0.97;;
3601;SDS011;1815;50.950;6.920;2023-03-31T12:26:50;5.53;;;1.10;;
3601;SDS011;1815;50.950;6.920;2023-03-31T12:32:26;6.30;;;1.60;;
3601;SDS011;1815;50.950;6.920;2023-03-31T12:35:06;3.27;;;0.90;;
3601;SDS011;1815;50.950;6.920;2023-03-31T12:40:37;5.80;;;1.00;;
3601;SDS011;1815;50.950;6.920;2023-03-31T12:59:37;5.20;;;1.10;;
3601;SDS011;1815;50.950;6.920;2023-03-31T13:04:41;4.90;;;1.23;;
3601;SDS011;1815;50.950;6.920;2023-03-31T13:09:55;5.57;;;1.20;;
3601;SDS011;1815;50.950;6.920;2023-03-31T13:12:24;4.50;;;1.00;;
3601;SDS011;1815;50.950;6.920;2023-03-31T13:14:52;4.33;;;1.23;;
3601;SDS011;1815;50.950;6.920;2023-03-31T13:17:28;3.17;;;0.80;;
3601;SDS011;1815;50.950;6.920;2023-03-31T13:20:16;3.83;;;0.93;;
3601;SDS011;1815;50.950;6.920;2023-03-31T13:25:42;4.23;;;1.00;;
3601;SDS011;1815;50.950;6.920;2023-03-31T13:31:03;3.10;;;0.80;;
3601;SDS011;1815;50.950;6.920;2023-03-31T13:53:21;5.30;;;1.00;;
3601;SDS011;1815;50.950;6.920;2023-03-31T13:59:27;3.60;;;1.00;;
3601;SDS011;1815;50.950;6.920;2023-03-31T14:08:09;4.37;;;1.40;;
3601;SDS011;1815;50.950;6.920;2023-03-31T14:10:39;3.17;;;0.70;;
3601;SDS011;1815;50.950;6.920;2023-03-31T14:15:45;3.00;;;1.20;;
3601;SDS011;1815;50.950;6.920;2023-03-31T14:18:25;1.80;;;0.60;;
3601;SDS011;1815;50.950;6.920;2023-03-31T14:23:35;2.40;;;0.80;;
3601;SDS011;1815;50.950;6.920;2023-03-31T14:34:37;3.87;;;0.60;;
3601;SDS011;1815;50.950;6.920;2023-03-31T14:37:06;2.47;;;0.70;;
3601;SDS011;1815;50.950;6.920;2023-03-31T14:39:45;3.10;;;0.70;;
3601;SDS011;1815;50.950;6.920;2023-03-31T14:42:14;3.00;;;0.60;;
3601;SDS011;1815;50.950;6.920;2023-03-31T14:44:42;1.93;;;0.60;;
3601;SDS011;1815;50.950;6.920;2023-03-31T14:47:12;2.27;;;0.60;;
3601;SDS011;1815;50.950;6.920;2023-03-31T14:49:46;3.97;;;0.60;;
3601;SDS011;1815;50.950;6.920;2023-03-31T14:52:13;2.00;;;0.83;;
3601;SDS011;1815;50.950;6.920;2023-03-31T14:54:46;1.80;;;0.70;;
3601;SDS011;1815;50.950;6.920;2023-03-31T14:57:13;2.93;;;1.13;;
3601;SDS011;1815;50.950;6.920;2023-03-31T14:59:50;2.50;;;0.80;;
3601;SDS011;1815;50.950;6.920;2023-03-31T15:02:40;3.07;;;1.33;;
3601;SDS011;1815;50.950;6.920;2023-03-31T15:05:07;2.63;;;0.70;;
3601;SDS011;1815;50.950;6.920;2023-03-31T15:07:39;4.37;;;0.63;;
3601;SDS011;1815;50.950;6.920;2023-03-31T15:10:05;2.90;;;0.90;;
3601;SDS011;1815;50.950;6.920;2023-03-31T15:12:32;3.97;;;1.00;;
3601;SDS011;1815;50.950;6.920;2023-03-31T15:15:04;3.87;;;0.60;;
3601;SDS011;1815;50.950;6.920;2023-03-31T15:17:35;4.33;;;0.90;;
3601;SDS011;1815;50.950;6.920;2023-03-31T15:20:46;2.17;;;0.67;;
3601;SDS011;1815;50.950;6.920;2023-03-31T15:22:55;3.33;;;0.80;;
3601;SDS011;1815;50.950;6.920;2023-03-31T15:25:23;3.93;;;0.90;;
3601;SDS011;1815;50.950;6.920;2023-03-31T15:27:54;3.37;;;1.00;;
3601;SDS011;1815;50.950;6.920;2023-03-31T15:30:24;3.97;;;0.70;;
3601;SDS011;1815;50.950;6.920;2023-03-31T15:32:51;2.70;;;0.70;;
3601;SDS011;1815;50.950;6.920;2023-03-31T15:37:50;2.63;;;1.00;;
3601;SDS011;1815;50.950;6.920;2023-03-31T15:40:25;2.33;;;0.83;;
3601;SDS011;1815;50.950;6.920;2023-03-31T15:42:58;3.10;;;0.90;;
3601;SDS011;1815;50.950;6.920;2023-03-31T15:45:47;2.87;;;1.17;;
3601;SDS011;1815;50.950;6.920;2023-03-31T15:48:18;3.83;;;1.07;;
3601;SDS011;1815;50.950;6.920;2023-03-31T15:50:48;3.70;;;0.93;;
3601;SDS011;1815;50.950;6.920;2023-03-31T15:53:28;2.53;;;1.10;;
3601;SDS011;1815;50.950;6.920;2023-03-31T15:56:09;3.07;;;1.07;;
3601;SDS011;1815;50.950;6.920;2023-03-31T15:59:03;2.47;;;0.80;;
3601;SDS011;1815;50.950;6.920;2023-03-31T16:01:29;4.30;;;1.13;;
3601;SDS011;1815;50.950;6.920;2023-03-31T16:04:08;2.53;;;1.13;;
3601;SDS011;1815;50.950;6.920;2023-03-31T16:09:12;5.43;;;1.33;;
3601;SDS011;1815;50.950;6.920;2023-03-31T16:11:46;4.73;;;2.30;;
3601;SDS011;1815;50.950;6.920;2023-03-31T16:14:20;2.60;;;1.37;;
3601;SDS011;1815;50.950;6.920;2023-03-31T16:16:53;3.03;;;1.10;;
3601;SDS011;1815;50.950;6.920;2023-03-31T16:19:27;2.17;;;0.97;;
3601;SDS011;1815;50.950;6.920;2023-03-31T16:22:03;4.27;;;1.23;;
3601;SDS011;1815;50.950;6.920;2023-03-31T16:24:30;2.20;;;0.80;;
3601;SDS011;1815;50.950;6.920;2023-03-31T16:27:02;4.40;;;1.07;;
3601;SDS011;1815;50.950;6.920;2023-03-31T16:29:34;4.13;;;1.20;;
3601;SDS011;1815;50.950;6.920;2023-03-31T16:34:32;3.07;;;0.80;;
3601;SDS011;1815;50.950;6.920;2023-03-31T16:36:58;2.67;;;0.80;;
3601;SDS011;1815;50.950;6.920;2023-03-31T16:39:32;3.20;;;0.70;;
3601;SDS011;1815;50.950;6.920;2023-03-31T16:41:58;2.97;;;0.60;;
3601;SDS011;1815;50.950;6.920;2023-03-31T16:44:24;2.27;;;0.70;;
3601;SDS011;1815;50.950;6.920;2023-03-31T16:46:49;3.17;;;0.80;;
3601;SDS011;1815;50.950;6.920;2023-03-31T16:49:15;3.73;;;1.27;;
3601;SDS011;1815;50.950;6.920;2023-03-31T16:51:41;3.17;;;0.80;;
3601;SDS011;1815;50.950;6.920;2023-03-31T16:54:06;4.70;;;1.00;;
3601;SDS011;1815;50.950;6.920;2023-03-31T16:56:32;2.93;;;0.80;;
3601;SDS011;1815;50.950;6.920;2023-03-31T16:58:58;1.87;;;0.63;;
3601;SDS011;1815;50.950;6.920;2023-03-31T17:01:24;2.90;;;1.67;;
3601;SDS011;1815;50.950;6.920;2023-03-31T17:03:50;5.63;;;0.70;;
3601;SDS011;1815;50.950;6.920;2023-03-31T17:06:15;4.23;;;1.10;;
3601;SDS011;1815;50.950;6.920;2023-03-31T17:08:41;2.40;;;0.70;;
3601;SDS011;1815;50.950;6.920;2023-03-31T17:11:08;2.67;;;0.70;;
3601;SDS011;1815;50.950;6.920;2023-03-31T17:13:36;2.40;;;0.60;;
3601;SDS011;1815;50.950;6.920;2023-03-31T17:16:03;4.07;;;0.80;;
3601;SDS011;1815;50.950;6.920;2023-03-31T17:18:29;1.50;;;0.60;;
3601;SDS011;1815;50.950;6.920;2023-03-31T17:21:01;2.07;;;0.50;;
3601;SDS011;1815;50.950;6.920;2023-03-31T17:23:29;2.20;;;0.70;;
3601;SDS011;1815;50.950;6.920;2023-03-31T17:25:54;2.80;;;0.70;;
3601;SDS011;1815;50.950;6.920;2023-03-31T17:28:20;3.23;;;0.90;;
3601;SDS011;1815;50.950;6.920;2023-03-31T17:30:46;3.43;;;1.07;;
3601;SDS011;1815;50.950;6.920;2023-03-31T17:33:15;3.60;;;1.00;;
3601;SDS011;1815;50.950;6.920;2023-03-31T17:35:41;7.07;;;3.50;;
3601;SDS011;1815;50.950;6.920;2023-03-31T17:38:07;4.67;;;2.90;;
3601;SDS011;1815;50.950;6.920;2023-03-31T17:40:35;3.03;;;1.20;;
3601;SDS011;1815;50.950;6.920;2023-03-31T17:43:00;7.00;;;1.57;;
3601;SDS011;1815;50.950;6.920;2023-03-31T17:45:29;6.17;;;2.50;;
3601;SDS011;1815;50.950;6.920;2023-03-31T17:47:56;5.93;;;2.43;;
3601;SDS011;1815;50.950;6.920;2023-03-31T17:50:23;11.57;;;5.00;;
3601;SDS011;1815;50.950;6.920;2023-03-31T17:52:50;12.03;;;5.37;;
3601;SDS011;1815;50.950;6.920;2023-03-31T17:55:16;8.53;;;3.80;;
3601;SDS011;1815;50.950;6.920;2023-03-31T17:57:43;6.00;;;3.13;;
3601;SDS011;1815;50.950;6.920;2023-03-31T18:00:09;4.20;;;1.73;;
3601;SDS011;1815;50.950;6.920;2023-03-31T18:02:35;3.67;;;1.30;;
3601;SDS011;1815;50.950;6.920;2023-03-31T18:05:02;7.27;;;3.30;;
3601;SDS011;1815;50.950;6.920;2023-03-31T18:07:30;10.83;;;6.53;;
3601;SDS011;1815;50.950;6.920;2023-03-31T18:09:55;8.20;;;3.70;;
3601;SDS011;1815;50.950;6.920;2023-03-31T18:12:21;3.43;;;1.73;;
3601;SDS011;1815;50.950;6.920;2023-03-31T18:14:47;5.07;;;2.30;;
3601;SDS011;1815;50.950;6.920;2023-03-31T18:17:13;3.80;;;1.40;;
3601;SDS011;1815;50.950;6.920;2023-03-31T18:19:40;3.73;;;1.10;;
3601;SDS011;1815;50.950;6.920;2023-03-31T18:22:06;1.90;;;0.83;;
3601;SDS011;1815;50.950;6.920;2023-03-31T18:24:32;3.70;;;1.07;;
3601;SDS011;1815;50.950;6.920;2023-03-31T18:27:00;2.37;;;0.80;;
3601;SDS011;1815;50.950;6.920;2023-03-31T18:29:26;2.03;;;0.70;;
3601;SDS011;1815;50.950;6.920;2023-03-31T18:31:52;2.63;;;0.90;;
3601;SDS011;1815;50.950;6.920;2023-03-31T18:34:17;3.00;;;1.07;;
3601;SDS011;1815;50.950;6.920;2023-03-31T18:36:43;7.43;;;4.00;;
3601;SDS011;1815;50.950;6.920;2023-03-31T18:39:10;8.77;;;4.23;;
3601;SDS011;1815;50.950;6.920;2023-03-31T18:41:38;12.47;;;8.00;;
3601;SDS011;1815;50.950;6.920;2023-03-31T18:44:09;9.20;;;4.93;;
3601;SDS011;1815;50.950;6.920;2023-03-31T18:46:37;21.83;;;10.97;;
3601;SDS011;1815;50.950;6.920;2023-03-31T18:49:03;16.80;;;9.80;;
3601;SDS011;1815;50.950;6.920;2023-03-31T18:51:29;11.10;;;7.00;;
3601;SDS011;1815;50.950;6.920;2023-03-31T18:53:55;7.77;;;4.07;;
3601;SDS011;1815;50.950;6.920;2023-03-31T18:56:21;6.77;;;3.00;;
3601;SDS011;1815;50.950;6.920;2023-03-31T18:58:47;8.80;;;3.60;;
3601;SDS011;1815;50.950;6.920;2023-03-31T19:01:12;5.00;;;2.40;;
3601;SDS011;1815;50.950;6.920;2023-03-31T19:03:38;3.80;;;1.30;;
3601;SDS011;1815;50.950;6.920;2023-03-31T19:06:05;3.30;;;1.10;;